createdAt,value
2018-11-01T00:01:19.391Z,31.85
2018-11-01T00:03:46.696Z,31.60
2018-11-01T00:06:14.026Z,32.85
2018-11-01T00:08:41.351Z,24.92
2018-11-01T00:11:08.672Z,24.63
2018-11-01T00:13:36.007Z,31.48
2018-11-01T00:16:03.359Z,44.85
2018-11-01T00:18:30.785Z,33.13
2018-11-01T00:20:58.112Z,29.60
2018-11-01T00:23:25.424Z,18.27
2018-11-01T00:25:52.757Z,20.95
2018-11-01T00:28:20.078Z,21.02
2018-11-01T00:30:47.404Z,20.68
2018-11-01T00:33:14.720Z,15.48
2018-11-01T00:35:42.049Z,33.20
2018-11-01T00:38:09.385Z,14.00
2018-11-01T00:40:36.725Z,21.23
2018-11-01T00:43:04.369Z,22.67
2018-11-01T00:45:31.688Z,17.57
2018-11-01T00:47:59.004Z,15.20
2018-11-01T00:50:26.334Z,17.50
2018-11-01T00:52:53.684Z,15.80
2018-11-01T00:55:21.008Z,16.77
2018-11-01T00:57:48.356Z,15.63
2018-11-01T01:00:15.944Z,14.75
2018-11-01T01:02:43.284Z,17.07
2018-11-01T01:05:11.061Z,17.27
2018-11-01T01:07:38.424Z,16.12
2018-11-01T01:10:08.244Z,15.28
2018-11-01T01:12:35.571Z,18.40
2018-11-01T01:15:02.946Z,15.72
2018-11-01T01:17:30.271Z,13.80
2018-11-01T01:19:57.588Z,13.48
2018-11-01T01:22:24.931Z,13.88
2018-11-01T01:24:52.244Z,16.65
2018-11-01T01:27:19.641Z,15.60
2018-11-01T01:29:46.977Z,78.05
2018-11-01T01:32:14.317Z,60.60
2018-11-01T01:34:41.728Z,65.62
2018-11-01T01:37:09.008Z,17.20
2018-11-01T01:39:36.381Z,18.35
2018-11-01T01:42:03.759Z,52.67
2018-11-01T01:44:31.155Z,28.70
2018-11-01T01:46:58.464Z,17.45
2018-11-01T01:49:25.793Z,16.57
2018-11-01T01:51:53.111Z,15.65
2018-11-01T01:54:20.443Z,33.08
2018-11-01T01:56:47.760Z,24.10
2018-11-01T01:59:15.201Z,16.77
2018-11-01T02:01:42.512Z,16.75
2018-11-01T02:04:09.839Z,15.95
2018-11-01T02:06:37.143Z,15.25
2018-11-01T02:09:10.073Z,13.70
2018-11-01T02:11:37.729Z,18.45
2018-11-01T02:14:05.786Z,31.07
2018-11-01T02:16:33.136Z,32.53
2018-11-01T02:19:00.456Z,22.35
2018-11-01T02:21:27.796Z,26.48
2018-11-01T02:23:55.152Z,30.62
2018-11-01T02:26:22.501Z,44.50
2018-11-01T02:28:49.845Z,41.53
2018-11-01T02:31:17.177Z,40.78
2018-11-01T02:33:44.526Z,30.92
2018-11-01T02:36:12.036Z,33.20
2018-11-01T02:38:39.429Z,24.60
2018-11-01T02:41:06.796Z,34.03
2018-11-01T02:43:34.172Z,26.23
2018-11-01T02:46:01.841Z,25.10
2018-11-01T02:48:29.341Z,28.90
2018-11-01T02:50:56.668Z,28.15
2018-11-01T02:53:24.135Z,33.78
2018-11-01T02:55:51.492Z,39.65
2018-11-01T02:58:18.808Z,18.32
2018-11-01T03:00:46.137Z,12.55
2018-11-01T03:03:13.464Z,27.80
2018-11-01T03:05:40.796Z,27.80
2018-11-01T03:08:08.400Z,21.15
2018-11-01T03:10:35.723Z,28.73
2018-11-01T03:13:03.077Z,26.35
2018-11-01T03:15:30.453Z,24.63
2018-11-01T03:17:57.774Z,36.50
2018-11-01T03:20:25.341Z,21.60
2018-11-01T03:22:52.660Z,20.48
2018-11-01T03:25:19.988Z,18.60
2018-11-01T03:27:47.313Z,13.15
2018-11-01T03:30:14.775Z,47.27
2018-11-01T03:32:42.020Z,33.70
2018-11-01T03:35:10.743Z,49.67
2018-11-01T03:37:38.067Z,36.93
2018-11-01T03:40:06.821Z,18.35
2018-11-01T03:42:34.151Z,13.28
2018-11-01T03:45:01.472Z,14.80
2018-11-01T03:47:28.820Z,14.85
2018-11-01T03:49:56.344Z,17.48
2018-11-01T03:52:23.657Z,23.60
2018-11-01T03:54:51.093Z,41.77
2018-11-01T03:57:18.453Z,37.80
2018-11-01T03:59:45.764Z,49.50
2018-11-01T04:02:13.086Z,44.08
2018-11-01T04:04:40.405Z,32.28
2018-11-01T04:07:07.748Z,31.12
2018-11-01T04:09:35.111Z,29.27
2018-11-01T04:12:02.432Z,48.45
2018-11-01T04:14:29.745Z,36.23
2018-11-01T04:16:57.110Z,62.70
2018-11-01T04:19:24.416Z,52.40
2018-11-01T04:21:56.295Z,40.48
2018-11-01T04:24:23.667Z,44.50
2018-11-01T04:26:51.092Z,125.65
2018-11-01T04:29:18.365Z,116.20
2018-11-01T04:31:45.636Z,125.40
2018-11-01T04:34:13.429Z,93.27
2018-11-01T04:36:40.701Z,58.50
2018-11-01T04:39:08.789Z,44.27
2018-11-01T04:41:36.054Z,35.50
2018-11-01T04:44:04.666Z,33.70
2018-11-01T04:46:31.962Z,27.13
2018-11-01T04:48:59.220Z,26.05
2018-11-01T04:51:26.464Z,30.97
2018-11-01T04:53:53.765Z,29.70
2018-11-01T04:56:21.022Z,42.88
2018-11-01T04:58:48.324Z,28.67
2018-11-01T05:01:20.211Z,15.20
2018-11-01T05:03:47.686Z,14.45
2018-11-01T05:06:14.897Z,23.25
2018-11-01T05:08:43.002Z,54.10
2018-11-01T05:11:10.274Z,39.92
2018-11-01T05:13:37.544Z,32.73
2018-11-01T05:16:05.389Z,39.50
2018-11-01T05:18:32.669Z,23.45
2018-11-01T05:20:59.921Z,32.30
2018-11-01T05:23:27.189Z,48.00
2018-11-01T05:25:54.586Z,43.20
2018-11-01T05:28:21.741Z,44.40
2018-11-01T05:30:49.000Z,38.90
2018-11-01T05:33:16.269Z,44.95
2018-11-01T05:35:43.541Z,36.70
2018-11-01T05:38:10.820Z,28.75
2018-11-01T05:40:38.148Z,28.90
2018-11-01T05:43:05.424Z,113.97
2018-11-01T05:45:32.682Z,40.50
2018-11-01T05:47:59.932Z,18.20
2018-11-01T05:50:27.196Z,19.95
2018-11-01T05:52:54.478Z,22.42
2018-11-01T05:55:21.759Z,19.67
2018-11-01T05:57:49.025Z,18.42
2018-11-01T06:00:16.334Z,24.20
2018-11-01T06:02:45.525Z,35.15
2018-11-01T06:05:12.800Z,30.48
2018-11-01T06:07:45.440Z,14.28
2018-11-01T06:10:12.708Z,19.00
2018-11-01T06:12:39.996Z,42.58
2018-11-01T06:15:08.094Z,139.30
2018-11-01T06:17:35.432Z,86.28
2018-11-01T06:20:02.846Z,56.75
2018-11-01T06:22:30.125Z,46.13
2018-11-01T06:24:57.425Z,39.98
2018-11-01T06:27:24.713Z,41.80
2018-11-01T06:29:52.244Z,32.63
2018-11-01T06:32:19.616Z,29.15
2018-11-01T06:34:52.077Z,37.08
2018-11-01T06:37:19.401Z,83.42
2018-11-01T06:39:46.688Z,62.03
2018-11-01T06:42:13.971Z,118.47
2018-11-01T06:44:41.295Z,41.58
2018-11-01T06:47:08.580Z,29.82
2018-11-01T06:49:35.845Z,25.52
2018-11-01T06:52:03.217Z,20.30
2018-11-01T06:54:30.494Z,18.32
2018-11-01T06:56:57.773Z,20.68
2018-11-01T06:59:25.174Z,18.98
2018-11-01T07:01:52.440Z,23.83
2018-11-01T07:04:19.693Z,25.77
2018-11-01T07:06:47.014Z,23.70
2018-11-01T07:09:14.388Z,25.65
2018-11-01T07:11:41.993Z,27.17
2018-11-01T07:14:09.847Z,24.77
2018-11-01T07:16:37.116Z,29.40
2018-11-01T07:19:04.650Z,24.35
2018-11-01T07:21:31.939Z,15.53
2018-11-01T07:23:59.193Z,13.20
2018-11-01T07:26:26.478Z,26.75
2018-11-01T07:28:53.834Z,46.68
2018-11-01T07:31:21.097Z,42.30
2018-11-01T07:33:48.352Z,38.48
2018-11-01T07:36:15.617Z,30.45
2018-11-01T07:38:42.877Z,40.73
2018-11-01T07:41:10.170Z,33.50
2018-11-01T07:43:37.471Z,36.90
2018-11-01T07:46:04.745Z,69.05
2018-11-01T07:48:32.042Z,27.55
2018-11-01T07:50:59.260Z,19.35
2018-11-01T07:53:26.535Z,46.10
2018-11-01T07:55:53.796Z,43.92
2018-11-01T07:58:21.083Z,38.40
2018-11-01T08:00:48.351Z,62.93
2018-11-01T08:03:15.616Z,45.38
2018-11-01T08:05:42.905Z,46.83
2018-11-01T08:08:10.204Z,57.20
2018-11-01T08:10:37.474Z,27.73
2018-11-01T08:13:04.808Z,20.43
2018-11-01T08:15:32.071Z,23.18
2018-11-01T08:17:59.365Z,28.55
2018-11-01T08:20:26.655Z,30.10
2018-11-01T08:22:53.900Z,27.87
2018-11-01T08:25:21.174Z,21.77
2018-11-01T08:27:48.453Z,23.60
2018-11-01T08:30:16.709Z,18.00
2018-11-01T08:32:43.988Z,16.12
2018-11-01T08:35:11.632Z,13.62
2018-11-01T08:37:39.621Z,13.13
2018-11-01T08:40:07.615Z,13.60
2018-11-01T08:42:34.876Z,21.57
2018-11-01T08:45:02.205Z,12.50
2018-11-01T08:47:29.473Z,11.18
2018-11-01T08:49:56.867Z,29.42
2018-11-01T08:52:24.141Z,18.27
2018-11-01T08:54:51.436Z,17.10
2018-11-01T08:57:18.700Z,15.45
2018-11-01T08:59:45.968Z,11.73
2018-11-01T09:02:13.322Z,14.78
2018-11-01T09:04:40.601Z,12.00
2018-11-01T09:07:07.887Z,9.85
2018-11-01T09:09:35.174Z,6.85
2018-11-01T09:12:02.443Z,18.32
2018-11-01T09:14:29.747Z,23.02
2018-11-01T09:16:56.992Z,24.60
2018-11-01T09:19:24.356Z,25.00
2018-11-01T09:21:51.588Z,33.65
2018-11-01T09:24:18.858Z,33.20
2018-11-01T09:26:46.167Z,29.05
2018-11-01T09:29:13.412Z,41.75
2018-11-01T09:31:40.665Z,50.45
2018-11-01T09:34:07.949Z,39.50
2018-11-01T09:36:35.224Z,23.75
2018-11-01T09:39:02.585Z,28.52
2018-11-01T09:41:29.845Z,16.55
2018-11-01T09:43:57.140Z,21.35
2018-11-01T09:46:24.514Z,14.85
2018-11-01T09:48:51.691Z,13.30
2018-11-01T09:51:18.973Z,22.73
2018-11-01T09:53:46.237Z,14.13
2018-11-01T09:56:13.723Z,13.15
2018-11-01T09:58:41.082Z,13.32
2018-11-01T10:01:08.537Z,19.82
2018-11-01T10:03:35.672Z,19.50
2018-11-01T10:06:02.984Z,22.05
2018-11-01T10:08:30.261Z,22.82
2018-11-01T10:10:57.689Z,16.67
2018-11-01T10:13:25.018Z,17.55
2018-11-01T10:15:52.465Z,13.38
2018-11-01T10:18:19.872Z,12.60
2018-11-01T10:20:46.865Z,11.68
2018-11-01T10:23:14.172Z,13.03
2018-11-01T10:25:41.416Z,14.58
2018-11-01T10:28:08.712Z,9.35
2018-11-01T10:30:35.984Z,8.80
2018-11-01T10:33:03.317Z,8.63
2018-11-01T10:35:30.593Z,10.05
2018-11-01T10:37:57.864Z,8.95
2018-11-01T10:40:25.146Z,11.35
2018-11-01T10:42:52.441Z,14.28
2018-11-01T10:45:19.708Z,13.70
2018-11-01T10:47:47.233Z,14.07
2018-11-01T10:50:15.628Z,10.03
2018-11-01T10:52:42.907Z,12.88
2018-11-01T10:55:11.166Z,9.48
2018-11-01T10:57:38.623Z,14.40
2018-11-01T11:00:08.567Z,8.80
2018-11-01T11:02:35.881Z,10.53
2018-11-01T11:05:03.230Z,10.32
2018-11-01T11:07:30.604Z,11.70
2018-11-01T11:09:57.877Z,10.88
2018-11-01T11:12:25.176Z,13.45
2018-11-01T11:14:52.512Z,9.28
2018-11-01T11:17:19.776Z,9.93
2018-11-01T11:19:47.035Z,9.20
2018-11-01T11:22:14.312Z,9.63
2018-11-01T11:24:41.626Z,12.35
2018-11-01T11:27:08.936Z,17.92
2018-11-01T11:29:36.225Z,14.53
2018-11-01T11:32:03.564Z,11.12
2018-11-01T11:34:30.837Z,10.32
2018-11-01T11:36:58.198Z,31.00
2018-11-01T11:39:25.528Z,20.55
2018-11-01T11:41:52.813Z,14.87
2018-11-01T11:44:20.184Z,12.43
2018-11-01T11:46:47.462Z,15.23
2018-11-01T11:49:14.744Z,19.60
2018-11-01T11:51:42.021Z,10.72
2018-11-01T11:54:09.368Z,9.43
2018-11-01T11:56:36.636Z,10.40
2018-11-01T11:59:04.465Z,9.45
2018-11-01T12:01:31.798Z,10.05
2018-11-01T12:03:59.233Z,10.17
2018-11-01T12:06:26.681Z,10.85
2018-11-01T12:08:53.802Z,8.88
2018-11-01T12:11:21.249Z,9.18
2018-11-01T12:13:48.651Z,10.93
2018-11-01T12:16:15.924Z,10.27
2018-11-01T12:18:43.201Z,9.23
2018-11-01T12:21:10.533Z,10.55
2018-11-01T12:23:37.818Z,10.50
2018-11-01T12:26:05.210Z,9.63
2018-11-01T12:28:32.768Z,9.20
2018-11-01T12:31:00.040Z,10.60
2018-11-01T12:33:27.387Z,10.15
2018-11-01T12:35:54.680Z,12.87
2018-11-01T12:38:21.991Z,10.03
2018-11-01T12:40:49.297Z,11.73
2018-11-01T12:43:16.592Z,9.45
2018-11-01T12:45:44.051Z,11.40
2018-11-01T12:48:11.361Z,15.23
2018-11-01T12:50:38.710Z,9.73
2018-11-01T12:53:06.037Z,10.10
2018-11-01T12:55:33.337Z,8.93
2018-11-01T12:58:00.704Z,10.43
2018-11-01T13:00:28.004Z,8.97
2018-11-01T13:02:55.637Z,10.10
2018-11-01T13:05:22.962Z,13.60
2018-11-01T13:07:50.289Z,11.83
2018-11-01T13:10:17.623Z,10.30
2018-11-01T13:12:44.961Z,10.77
2018-11-01T13:15:12.813Z,9.50
2018-11-01T13:17:40.504Z,14.90
2018-11-01T13:20:08.161Z,10.48
2018-11-01T13:22:35.540Z,12.18
2018-11-01T13:25:02.852Z,9.40
2018-11-01T13:27:30.216Z,9.67
2018-11-01T13:29:57.508Z,11.90
2018-11-01T13:32:24.859Z,12.10
2018-11-01T13:34:52.298Z,11.10
2018-11-01T13:37:19.717Z,9.45
2018-11-01T13:39:47.283Z,11.00
2018-11-01T13:42:15.292Z,11.60
2018-11-01T13:44:42.645Z,9.60
2018-11-01T13:47:10.490Z,10.13
2018-11-01T13:49:37.821Z,11.20
2018-11-01T13:52:05.345Z,9.97
2018-11-01T13:54:32.693Z,14.60
2018-11-01T13:57:00.043Z,11.27
2018-11-01T13:59:27.480Z,10.03
2018-11-01T14:01:54.781Z,8.23
2018-11-01T14:04:22.069Z,10.60
2018-11-01T14:06:49.435Z,8.83
2018-11-01T14:09:16.740Z,8.50
2018-11-01T14:11:44.037Z,8.30
2018-11-01T14:14:11.738Z,9.87
2018-11-01T14:16:38.831Z,14.90
2018-11-01T14:19:06.192Z,9.40
2018-11-01T14:21:33.486Z,9.50
2018-11-01T14:24:01.022Z,10.73
2018-11-01T14:26:28.358Z,9.17
2018-11-01T14:28:56.147Z,9.60
2018-11-01T14:31:23.500Z,8.93
2018-11-01T14:33:50.785Z,9.50
2018-11-01T14:36:18.077Z,8.90
2018-11-01T14:38:45.503Z,8.20
2018-11-01T14:41:13.011Z,8.53
2018-11-01T14:43:40.296Z,10.00
2018-11-01T14:46:07.605Z,9.00
2018-11-01T14:48:35.126Z,9.57
2018-11-01T14:51:02.446Z,9.00
2018-11-01T14:53:30.914Z,7.87
2018-11-01T14:55:58.507Z,8.83
2018-11-01T14:58:26.075Z,9.23
2018-11-01T15:00:52.583Z,8.50
2018-11-01T15:03:19.863Z,7.20
2018-11-01T15:05:47.213Z,6.83
2018-11-01T15:08:14.543Z,6.83
2018-11-01T15:10:41.897Z,8.13
2018-11-01T15:13:09.852Z,8.77
2018-11-01T15:15:36.933Z,7.20
2018-11-01T15:18:04.781Z,6.30
2018-11-01T15:20:32.089Z,8.00
2018-11-01T15:22:59.928Z,7.30
2018-11-01T15:25:27.241Z,6.97
2018-11-01T15:27:54.902Z,5.70
2018-11-01T15:30:22.285Z,10.43
2018-11-01T15:32:49.537Z,7.67
2018-11-01T15:35:16.960Z,7.00
2018-11-01T15:37:44.245Z,5.70
2018-11-01T15:40:12.311Z,6.80
2018-11-01T15:42:40.625Z,6.00
2018-11-01T15:45:08.862Z,8.33
2018-11-01T15:47:36.365Z,6.13
2018-11-01T15:50:04.480Z,6.80
2018-11-01T15:52:32.000Z,5.57
2018-11-01T15:54:59.297Z,6.10
2018-11-01T15:57:26.814Z,7.47
2018-11-01T15:59:54.144Z,7.33
2018-11-01T16:02:21.644Z,5.93
2018-11-01T16:04:48.872Z,5.30
2018-11-01T16:07:16.174Z,5.33
2018-11-01T16:09:43.452Z,8.10
2018-11-01T16:12:10.750Z,5.40
2018-11-01T16:14:38.048Z,4.90
2018-11-01T16:17:05.350Z,7.37
2018-11-01T16:19:32.739Z,5.43
2018-11-01T16:21:59.930Z,6.25
2018-11-01T16:24:27.320Z,4.87
2018-11-01T16:26:54.654Z,6.03
2018-11-01T16:29:21.907Z,7.15
2018-11-01T16:31:49.184Z,10.50
2018-11-01T16:34:16.484Z,21.17
2018-11-01T16:36:44.017Z,17.60
2018-11-01T16:39:11.911Z,17.83
2018-11-01T16:41:39.441Z,23.63
2018-11-01T16:44:07.028Z,19.30
2018-11-01T16:46:34.308Z,17.27
2018-11-01T16:49:01.729Z,34.80
2018-11-01T16:51:28.948Z,52.00
2018-11-01T16:53:56.224Z,67.00
2018-11-01T16:56:23.613Z,34.00
2018-11-01T16:58:50.954Z,41.45
2018-11-01T17:01:18.233Z,60.67
2018-11-01T17:03:45.727Z,32.30
2018-11-01T17:06:13.008Z,34.55
2018-11-01T17:08:40.664Z,40.40
2018-11-01T17:11:09.211Z,50.50
2018-11-01T17:13:36.853Z,106.70
2018-11-01T17:16:04.573Z,61.40
2018-11-01T17:18:31.885Z,47.83
2018-11-01T17:21:15.058Z,90.70
2018-11-01T17:23:44.573Z,32.03
2018-11-01T17:26:12.298Z,23.12
2018-11-01T17:28:39.620Z,30.72
2018-11-01T17:31:06.909Z,101.12
2018-11-01T17:33:34.218Z,65.97
2018-11-01T17:36:01.545Z,89.83
2018-11-01T17:38:29.077Z,91.53
2018-11-01T17:40:56.448Z,39.30
2018-11-01T17:43:23.868Z,20.57
2018-11-01T17:45:51.187Z,36.00
2018-11-01T17:48:18.490Z,17.00
2018-11-01T17:50:45.822Z,16.10
2018-11-01T17:53:13.169Z,28.47
2018-11-01T17:55:40.482Z,26.20
2018-11-01T17:58:07.818Z,40.23
2018-11-01T18:00:35.170Z,52.35
2018-11-01T18:03:02.509Z,67.32
2018-11-01T18:05:29.940Z,59.65
2018-11-01T18:07:57.320Z,30.40
2018-11-01T18:10:24.670Z,24.85
2018-11-01T18:12:51.986Z,16.27
2018-11-01T18:15:19.370Z,17.50
2018-11-01T18:17:46.768Z,34.18
2018-11-01T18:20:14.064Z,99.20
2018-11-01T18:22:41.681Z,78.35
2018-11-01T18:25:10.590Z,77.87
2018-11-01T18:27:37.907Z,64.85
2018-11-01T18:30:07.481Z,41.98
2018-11-01T18:32:34.963Z,34.15
2018-11-01T18:35:02.175Z,26.45
2018-11-01T18:37:29.642Z,21.90
2018-11-01T18:39:57.513Z,20.17
2018-11-01T18:42:24.935Z,22.10
2018-11-01T18:44:52.165Z,24.43
2018-11-01T18:47:19.750Z,25.92
2018-11-01T18:49:47.039Z,22.20
2018-11-01T18:52:14.348Z,28.95
2018-11-01T18:54:41.727Z,23.20
2018-11-01T18:57:09.108Z,24.57
2018-11-01T18:59:36.467Z,35.45
2018-11-01T19:02:03.844Z,35.65
2018-11-01T19:04:31.125Z,25.37
2018-11-01T19:06:58.465Z,24.12
2018-11-01T19:09:25.714Z,18.30
2018-11-01T19:11:53.033Z,14.07
2018-11-01T19:14:20.417Z,16.17
2018-11-01T19:16:48.072Z,15.68
2018-11-01T19:19:15.645Z,12.65
2018-11-01T19:21:43.020Z,13.40
2018-11-01T19:24:10.500Z,14.73
2018-11-01T19:26:37.842Z,13.85
2018-11-01T19:29:05.215Z,13.55
2018-11-01T19:31:32.674Z,14.15
2018-11-01T19:34:00.194Z,13.90
2018-11-01T19:36:27.876Z,13.28
2018-11-01T19:38:55.290Z,15.08
2018-11-01T19:41:22.728Z,16.60
2018-11-01T19:43:50.093Z,15.20
2018-11-01T19:46:17.563Z,12.78
2018-11-01T19:48:45.165Z,14.23
2018-11-01T19:51:12.678Z,13.40
2018-11-01T19:53:40.254Z,12.80
2018-11-01T19:56:07.801Z,12.80
2018-11-01T19:58:35.156Z,11.57
2018-11-01T20:01:02.550Z,14.35
2018-11-01T20:03:31.627Z,14.23
2018-11-01T20:05:59.414Z,14.45
2018-11-01T20:08:26.808Z,16.80
2018-11-01T20:10:54.037Z,16.30
2018-11-01T20:13:21.413Z,15.25
2018-11-01T20:15:48.772Z,13.18
2018-11-01T20:18:16.077Z,14.80
2018-11-01T20:20:43.436Z,17.50
2018-11-01T20:23:10.848Z,13.32
2018-11-01T20:25:38.272Z,11.57
2018-11-01T20:28:05.739Z,16.00
2018-11-01T20:30:33.061Z,16.52
2018-11-01T20:33:00.416Z,17.60
2018-11-01T20:35:27.824Z,39.45
2018-11-01T20:37:55.146Z,31.27
2018-11-01T20:40:22.507Z,26.65
2018-11-01T20:42:49.840Z,18.82
2018-11-01T20:45:17.188Z,14.65
2018-11-01T20:47:44.470Z,13.60
2018-11-01T20:50:12.612Z,13.28
2018-11-01T20:52:39.916Z,13.78
2018-11-01T20:55:07.411Z,15.18
2018-11-01T20:57:34.741Z,17.20
2018-11-01T21:00:02.080Z,17.37
2018-11-01T21:02:29.371Z,19.02
2018-11-01T21:04:56.824Z,16.82
2018-11-01T21:07:24.146Z,21.87
2018-11-01T21:09:51.451Z,20.35
2018-11-01T21:12:18.749Z,30.23
2018-11-01T21:14:46.053Z,35.05
2018-11-01T21:17:13.378Z,32.08
2018-11-01T21:19:40.678Z,22.37
2018-11-01T21:22:10.185Z,18.60
2018-11-01T21:24:37.505Z,17.92
2018-11-01T21:27:04.880Z,17.73
2018-11-01T21:29:32.421Z,19.95
2018-11-01T21:31:59.804Z,16.57
2018-11-01T21:34:27.241Z,18.07
2018-11-01T21:36:54.569Z,15.72
2018-11-01T21:39:22.098Z,16.12
2018-11-01T21:41:49.483Z,17.02
2018-11-01T21:44:17.199Z,18.45
2018-11-01T21:46:44.499Z,17.25
2018-11-01T21:49:12.180Z,21.50
2018-11-01T21:51:39.571Z,17.60
2018-11-01T21:54:07.061Z,19.40
2018-11-01T21:56:34.478Z,16.93
2018-11-01T21:59:01.772Z,19.53
2018-11-01T22:01:36.783Z,14.50
2018-11-01T22:04:09.576Z,20.70
2018-11-01T22:06:39.161Z,22.42
2018-11-01T22:09:07.340Z,32.37
2018-11-01T22:11:34.704Z,30.32
2018-11-01T22:14:02.160Z,15.38
2018-11-01T22:16:29.524Z,19.23
2018-11-01T22:18:57.016Z,17.00
2018-11-01T22:21:24.344Z,16.73
2018-11-01T22:23:51.629Z,17.23
2018-11-01T22:26:18.923Z,16.93
2018-11-01T22:28:46.326Z,18.23
2018-11-01T22:31:13.493Z,18.30
2018-11-01T22:33:40.883Z,16.07
2018-11-01T22:36:08.186Z,19.62
2018-11-01T22:38:35.606Z,23.15
2018-11-01T22:41:02.889Z,18.67
2018-11-01T22:43:30.194Z,19.23
2018-11-01T22:45:57.478Z,15.75
2018-11-01T22:48:24.812Z,19.27
2018-11-01T22:50:52.216Z,15.93
2018-11-01T22:53:19.518Z,16.62
2018-11-01T22:55:46.935Z,14.23
2018-11-01T22:58:14.376Z,14.60
2018-11-01T23:00:42.237Z,13.90
2018-11-01T23:03:09.768Z,14.55
2018-11-01T23:05:37.072Z,14.07
2018-11-01T23:08:04.856Z,15.88
2018-11-01T23:10:32.153Z,12.85
2018-11-01T23:12:59.481Z,11.43
2018-11-01T23:15:26.765Z,13.72
2018-11-01T23:17:54.057Z,13.05
2018-11-01T23:20:21.460Z,10.05
2018-11-01T23:22:48.761Z,16.20
2018-11-01T23:25:16.092Z,10.65
2018-11-01T23:27:43.421Z,12.80
2018-11-01T23:30:10.782Z,10.70
2018-11-01T23:32:38.080Z,12.00
2018-11-01T23:35:05.525Z,13.88
2018-11-01T23:37:38.561Z,11.70
2018-11-01T23:40:11.785Z,11.35
2018-11-01T23:42:44.693Z,11.45
2018-11-01T23:45:17.545Z,10.10
2018-11-01T23:47:50.452Z,10.72
2018-11-01T23:51:24.881Z,8.03
2018-11-01T23:53:52.189Z,8.20
2018-11-01T23:56:20.012Z,10.23
2018-11-01T23:58:47.341Z,8.38
